createdAt,value
2019-01-21T00:00:46.889Z,1.64
2019-01-21T00:03:16.144Z,1.64
2019-01-21T00:05:45.347Z,1.64
2019-01-21T00:08:14.528Z,1.55
2019-01-21T00:10:43.736Z,1.61
2019-01-21T00:13:12.907Z,1.61
2019-01-21T00:15:42.166Z,1.58
2019-01-21T00:18:11.627Z,1.57
2019-01-21T00:20:41.116Z,1.59
2019-01-21T00:23:10.295Z,1.60
2019-01-21T00:25:39.494Z,1.57
2019-01-21T00:28:08.907Z,1.55
2019-01-21T00:30:38.122Z,1.55
2019-01-21T00:33:07.292Z,1.52
2019-01-21T00:35:36.471Z,1.56
2019-01-21T00:38:05.885Z,1.63
2019-01-21T00:40:35.073Z,1.63
2019-01-21T00:43:04.375Z,1.55
2019-01-21T00:45:33.567Z,1.59
2019-01-21T00:48:02.771Z,1.58
2019-01-21T00:50:31.954Z,1.61
2019-01-21T00:53:01.165Z,1.56
2019-01-21T00:55:30.345Z,1.60
2019-01-21T00:57:59.543Z,1.58
2019-01-21T01:00:28.927Z,1.55
2019-01-21T01:02:58.127Z,1.55
2019-01-21T01:05:27.303Z,1.57
2019-01-21T01:07:56.509Z,1.55
2019-01-21T01:10:25.691Z,1.57
2019-01-21T01:12:54.892Z,1.55
2019-01-21T01:15:24.091Z,1.54
2019-01-21T01:17:53.295Z,1.57
2019-01-21T01:20:23.021Z,1.57
2019-01-21T01:22:52.324Z,1.57
2019-01-21T01:25:21.504Z,1.55
2019-01-21T01:27:50.713Z,1.53
2019-01-21T01:30:19.887Z,1.54
2019-01-21T01:32:49.092Z,1.52
2019-01-21T01:35:18.306Z,1.51
2019-01-21T01:37:47.893Z,1.53
2019-01-21T01:40:19.234Z,1.56
2019-01-21T01:42:48.875Z,1.53
2019-01-21T01:45:23.608Z,1.56
2019-01-21T01:48:00.017Z,1.54
2019-01-21T01:50:29.392Z,1.52
2019-01-21T01:52:58.695Z,1.53
2019-01-21T01:55:29.884Z,1.53
2019-01-21T01:58:00.749Z,1.62
2019-01-21T02:00:30.125Z,1.62
2019-01-21T02:02:59.544Z,1.63
2019-01-21T02:05:28.725Z,1.61
2019-01-21T02:07:57.927Z,1.60
2019-01-21T02:10:27.104Z,1.58
2019-01-21T02:12:56.444Z,1.59
2019-01-21T02:15:25.626Z,1.56
2019-01-21T02:17:54.842Z,1.60
2019-01-21T02:20:24.297Z,1.61
2019-01-21T02:23:01.420Z,1.64
2019-01-21T02:25:46.850Z,1.64
2019-01-21T02:28:51.890Z,1.62
2019-01-21T02:32:09.293Z,1.64
2019-01-21T02:35:23.799Z,1.66
2019-01-21T02:38:29.530Z,1.66
2019-01-21T02:41:32.648Z,1.64
2019-01-21T02:44:39.922Z,1.62
2019-01-21T02:47:42.453Z,1.63
2019-01-21T02:50:46.646Z,1.62
2019-01-21T02:53:41.422Z,1.58
2019-01-21T02:56:46.112Z,1.60
2019-01-21T02:59:52.487Z,1.58
2019-01-21T03:03:13.073Z,1.56
2019-01-21T03:06:11.258Z,1.54
2019-01-21T03:09:27.513Z,1.52
2019-01-21T03:12:43.653Z,1.48
2019-01-21T03:15:28.178Z,1.43
2019-01-21T03:18:51.919Z,1.49
2019-01-21T03:22:03.516Z,1.50
2019-01-21T03:24:59.955Z,1.50
2019-01-21T03:28:04.787Z,1.49
2019-01-21T03:30:58.928Z,1.56
2019-01-21T03:34:03.926Z,1.55
2019-01-21T03:37:07.943Z,1.58
2019-01-21T03:40:18.608Z,1.58
2019-01-21T03:43:20.743Z,1.55
2019-01-21T03:46:44.341Z,1.50
2019-01-21T03:49:44.996Z,1.46
2019-01-21T03:52:41.111Z,1.48
2019-01-21T03:55:13.584Z,1.50
2019-01-21T03:58:22.988Z,1.47
2019-01-21T04:01:07.998Z,1.46
2019-01-21T04:04:36.183Z,1.52
2019-01-21T04:07:31.443Z,1.54
2019-01-21T04:10:40.443Z,1.52
2019-01-21T04:13:26.362Z,1.48
2019-01-21T04:16:17.218Z,1.49
2019-01-21T04:19:24.559Z,1.49
2019-01-21T04:22:34.841Z,1.52
2019-01-21T04:25:25.411Z,1.51
2019-01-21T04:28:22.059Z,1.49
2019-01-21T04:31:50.237Z,1.44
2019-01-21T04:34:53.935Z,1.49
2019-01-21T04:38:09.822Z,1.42
2019-01-21T04:41:17.901Z,1.54
2019-01-21T04:44:18.627Z,1.50
2019-01-21T04:47:32.346Z,1.42
2019-01-21T04:50:34.304Z,1.46
2019-01-21T04:53:31.076Z,1.47
2019-01-21T04:56:41.468Z,1.38
2019-01-21T04:59:54.233Z,1.38
2019-01-21T05:03:03.356Z,1.41
2019-01-21T05:06:13.533Z,1.38
2019-01-21T05:09:23.334Z,1.45
2019-01-21T05:12:45.977Z,1.44
2019-01-21T05:15:42.416Z,1.45
2019-01-21T05:18:46.791Z,1.53
2019-01-21T05:21:59.816Z,1.51
2019-01-21T05:25:04.737Z,1.60
2019-01-21T05:28:12.254Z,1.62
2019-01-21T05:31:12.801Z,1.56
2019-01-21T05:34:35.149Z,1.57
2019-01-21T05:37:54.662Z,1.52
2019-01-21T05:41:08.599Z,1.49
2019-01-21T05:44:07.674Z,1.46
2019-01-21T05:47:25.185Z,1.49
2019-01-21T05:50:48.352Z,1.52
2019-01-21T05:54:12.448Z,1.62
2019-01-21T05:57:28.571Z,1.61
2019-01-21T06:00:38.069Z,1.59
2019-01-21T06:03:34.709Z,1.54
2019-01-21T06:06:45.783Z,1.51
2019-01-21T06:09:54.539Z,1.56
2019-01-21T06:13:01.026Z,1.50
2019-01-21T06:16:13.199Z,1.53
2019-01-21T06:19:44.389Z,1.52
2019-01-21T06:22:51.601Z,1.54
2019-01-21T06:25:54.455Z,1.59
2019-01-21T06:28:59.723Z,1.60
2019-01-21T06:32:10.044Z,1.65
2019-01-21T06:35:26.271Z,1.70
2019-01-21T06:38:09.851Z,1.72
2019-01-21T06:41:31.182Z,1.72
2019-01-21T06:44:24.326Z,1.69
2019-01-21T06:47:37.635Z,1.66
2019-01-21T06:50:30.732Z,1.67
2019-01-21T06:53:34.929Z,1.65
2019-01-21T06:56:35.465Z,1.59
2019-01-21T06:59:38.833Z,1.60
2019-01-21T07:02:37.586Z,1.61
2019-01-21T07:05:31.334Z,1.61
2019-01-21T07:08:38.587Z,1.61
2019-01-21T07:11:38.001Z,1.61
2019-01-21T07:14:35.691Z,1.59
2019-01-21T07:17:54.036Z,1.61
2019-01-21T07:20:40.365Z,1.55
2019-01-21T07:23:39.079Z,1.65
2019-01-21T07:27:08.333Z,1.68
2019-01-21T07:30:20.476Z,1.73
2019-01-21T07:33:23.335Z,1.75
2019-01-21T07:36:33.844Z,1.78
2019-01-21T07:39:33.886Z,1.83
2019-01-21T07:42:31.737Z,1.85
2019-01-21T07:45:12.060Z,1.82
2019-01-21T07:48:31.045Z,1.88
2019-01-21T07:51:25.693Z,1.84
2019-01-21T07:54:21.838Z,1.82
2019-01-21T07:57:43.516Z,1.86
2019-01-21T08:00:42.460Z,1.86
2019-01-21T08:04:01.299Z,1.90
2019-01-21T08:06:45.323Z,1.85
2019-01-21T08:09:56.961Z,1.97
2019-01-21T08:12:59.434Z,1.95
2019-01-21T08:16:06.418Z,2.07
2019-01-21T08:19:40.520Z,2.12
2019-01-21T08:22:52.527Z,2.09
2019-01-21T08:25:52.234Z,2.10
2019-01-21T08:29:11.628Z,2.13
2019-01-21T08:31:47.958Z,2.10
2019-01-21T08:34:41.709Z,2.12
2019-01-21T08:37:35.080Z,2.20
2019-01-21T08:40:25.652Z,2.18
2019-01-21T08:43:42.074Z,2.22
2019-01-21T08:46:53.401Z,2.26
2019-01-21T08:49:48.402Z,2.34
2019-01-21T08:52:51.744Z,2.28
2019-01-21T08:55:54.185Z,2.25
2019-01-21T08:59:13.229Z,2.32
2019-01-21T09:02:08.118Z,2.35
2019-01-21T09:05:14.099Z,2.32
2019-01-21T09:08:23.203Z,2.27
2019-01-21T09:11:27.731Z,2.05
2019-01-21T09:14:07.873Z,2.16
2019-01-21T09:17:01.434Z,2.22
2019-01-21T09:20:16.822Z,2.20
2019-01-21T09:23:09.270Z,2.18
2019-01-21T09:25:59.028Z,2.24
2019-01-21T09:29:08.403Z,2.25
2019-01-21T09:32:09.576Z,2.24
2019-01-21T09:35:28.698Z,2.20
2019-01-21T09:38:18.217Z,2.16
2019-01-21T09:41:20.625Z,2.25
2019-01-21T09:44:19.761Z,2.27
2019-01-21T09:46:50.866Z,2.25
2019-01-21T09:49:18.376Z,2.28
2019-01-21T09:52:06.454Z,2.40
2019-01-21T09:54:37.893Z,2.40
2019-01-21T09:57:08.553Z,2.34
2019-01-21T09:59:37.863Z,2.12
2019-01-21T10:02:10.787Z,2.13
2019-01-21T10:04:48.365Z,2.17
2019-01-21T10:07:42.700Z,2.27
2019-01-21T10:11:03.416Z,2.32
2019-01-21T10:14:18.709Z,2.34
2019-01-21T10:17:44.099Z,2.35
2019-01-21T10:20:45.834Z,2.42
2019-01-21T10:23:48.114Z,2.46
2019-01-21T10:26:44.406Z,2.42
2019-01-21T10:29:33.621Z,2.46
2019-01-21T10:32:51.756Z,2.44
2019-01-21T10:35:47.383Z,2.45
2019-01-21T10:38:59.908Z,2.50
2019-01-21T10:41:54.240Z,2.50
2019-01-21T10:44:54.184Z,2.53
2019-01-21T10:47:46.141Z,2.50
2019-01-21T10:50:55.664Z,2.50
2019-01-21T10:54:01.932Z,2.48
2019-01-21T10:56:40.187Z,2.56
2019-01-21T10:59:59.214Z,2.55
2019-01-21T11:03:21.379Z,2.55
2019-01-21T11:06:16.437Z,2.57
2019-01-21T11:09:18.136Z,2.54
2019-01-21T11:12:02.415Z,2.58
2019-01-21T11:15:02.614Z,2.62
2019-01-21T11:17:55.104Z,2.64
2019-01-21T11:21:14.191Z,2.66
2019-01-21T11:24:03.232Z,2.70
2019-01-21T11:27:04.520Z,2.76
2019-01-21T11:30:07.341Z,2.80
2019-01-21T11:33:15.631Z,2.81
2019-01-21T11:36:16.041Z,2.73
2019-01-21T11:39:06.229Z,2.73
2019-01-21T11:42:13.602Z,2.67
2019-01-21T11:45:27.409Z,2.65
2019-01-21T11:48:43.344Z,2.65
2019-01-21T11:51:37.731Z,2.64
2019-01-21T11:54:38.828Z,2.64
2019-01-21T11:57:42.079Z,2.66
2019-01-21T12:00:18.060Z,2.64
2019-01-21T12:03:23.654Z,2.67
2019-01-21T12:05:59.330Z,2.70
2019-01-21T12:08:52.953Z,2.74
2019-01-21T12:12:05.682Z,2.74
2019-01-21T12:15:25.064Z,2.78
2019-01-21T12:18:42.616Z,2.78
2019-01-21T12:21:41.617Z,2.81
2019-01-21T12:24:22.644Z,2.82
2019-01-21T12:27:23.372Z,2.79
2019-01-21T12:30:23.829Z,2.88
2019-01-21T12:34:04.227Z,2.90
2019-01-21T12:36:42.130Z,2.89
2019-01-21T12:39:51.107Z,2.84
2019-01-21T12:42:50.679Z,2.87
2019-01-21T12:45:46.850Z,2.91
2019-01-21T12:48:52.496Z,2.92
2019-01-21T12:51:44.319Z,2.95
2019-01-21T12:54:40.507Z,2.93
2019-01-21T12:57:35.902Z,2.93
2019-01-21T13:00:45.997Z,2.90
2019-01-21T13:03:43.827Z,2.94
2019-01-21T13:06:37.391Z,3.04
2019-01-21T13:09:33.452Z,2.98
2019-01-21T13:12:28.612Z,2.97
2019-01-21T13:15:36.345Z,2.96
2019-01-21T13:19:04.503Z,3.00
2019-01-21T13:21:46.509Z,2.95
2019-01-21T13:24:58.266Z,2.92
2019-01-21T13:28:23.427Z,2.82
2019-01-21T13:31:42.269Z,2.82
2019-01-21T13:34:23.679Z,2.75
2019-01-21T13:37:16.857Z,2.86
2019-01-21T13:40:29.306Z,2.85
2019-01-21T13:43:15.084Z,2.87
2019-01-21T13:46:24.295Z,2.87
2019-01-21T13:49:03.968Z,2.81
2019-01-21T13:52:17.924Z,2.84
2019-01-21T13:55:37.587Z,2.85
2019-01-21T13:58:42.938Z,2.83
2019-01-21T14:01:39.539Z,2.87
2019-01-21T14:04:55.011Z,2.86
2019-01-21T14:08:09.873Z,2.82
2019-01-21T14:11:08.211Z,2.79
2019-01-21T14:14:24.598Z,2.82
2019-01-21T14:17:34.137Z,2.82
2019-01-21T14:20:21.451Z,2.97
2019-01-21T14:23:09.626Z,2.90
2019-01-21T14:26:14.452Z,2.82
2019-01-21T14:29:08.716Z,2.82
2019-01-21T14:32:19.704Z,2.86
2019-01-21T14:35:45.030Z,2.88
2019-01-21T14:38:54.702Z,2.83
2019-01-21T14:42:19.841Z,2.87
2019-01-21T14:45:20.437Z,2.88
2019-01-21T14:48:26.042Z,2.84
2019-01-21T14:51:32.788Z,2.81
2019-01-21T14:54:28.159Z,2.70
2019-01-21T14:57:30.769Z,2.79
2019-01-21T15:00:31.624Z,2.82
2019-01-21T15:03:40.310Z,2.76
2019-01-21T15:06:18.589Z,2.75
2019-01-21T15:09:15.156Z,2.73
2019-01-21T15:12:12.952Z,2.66
2019-01-21T15:15:16.862Z,2.69
2019-01-21T15:18:41.608Z,2.66
2019-01-21T15:21:24.261Z,2.64
2019-01-21T15:24:32.592Z,2.67
2019-01-21T15:27:12.362Z,2.77
2019-01-21T15:30:13.231Z,2.78
2019-01-21T15:33:23.578Z,2.72
2019-01-21T15:36:17.558Z,2.66
2019-01-21T15:39:17.754Z,2.59
2019-01-21T15:42:29.747Z,2.56
2019-01-21T15:45:35.105Z,2.66
2019-01-21T15:48:31.321Z,2.64
2019-01-21T15:51:50.131Z,2.64
2019-01-21T15:54:36.766Z,2.69
2019-01-21T15:57:13.830Z,2.69
2019-01-21T16:00:39.128Z,2.66
2019-01-21T16:03:37.807Z,2.68
2019-01-21T16:06:37.550Z,2.62
2019-01-21T16:09:28.692Z,2.62
2019-01-21T16:12:34.489Z,2.62
2019-01-21T16:15:12.367Z,2.62
2019-01-21T16:18:14.941Z,2.59
2019-01-21T16:21:12.662Z,2.57
2019-01-21T16:24:18.862Z,2.57
2019-01-21T16:27:10.202Z,2.56
2019-01-21T16:30:05.352Z,2.49
2019-01-21T16:32:56.493Z,2.55
2019-01-21T16:35:49.044Z,2.56
2019-01-21T16:38:57.747Z,2.64
2019-01-21T16:41:55.214Z,2.64
2019-01-21T16:44:24.450Z,2.65
2019-01-21T16:46:53.676Z,2.63
2019-01-21T16:49:22.851Z,2.48
2019-01-21T16:51:52.063Z,2.53
2019-01-21T16:54:21.567Z,2.52
2019-01-21T16:56:50.812Z,2.55
2019-01-21T16:59:20.006Z,2.61
2019-01-21T17:01:49.472Z,2.38
2019-01-21T17:04:18.657Z,2.49
2019-01-21T17:06:47.907Z,2.51
2019-01-21T17:09:17.353Z,2.52
2019-01-21T17:11:46.558Z,2.54
2019-01-21T17:14:15.740Z,2.52
2019-01-21T17:16:44.952Z,2.61
2019-01-21T17:19:14.144Z,2.66
2019-01-21T17:21:43.358Z,2.61
2019-01-21T17:24:12.824Z,2.59
2019-01-21T17:26:42.039Z,2.65
2019-01-21T17:29:11.219Z,2.63
2019-01-21T17:31:40.400Z,2.65
2019-01-21T17:34:09.603Z,2.60
2019-01-21T17:36:38.807Z,2.63
2019-01-21T17:39:09.334Z,2.55
2019-01-21T17:41:38.795Z,2.43
2019-01-21T17:44:07.976Z,2.40
2019-01-21T17:46:37.449Z,2.41
2019-01-21T17:49:06.633Z,2.42
2019-01-21T17:51:35.839Z,2.46
2019-01-21T17:54:05.164Z,2.55
2019-01-21T17:56:34.386Z,2.46
2019-01-21T17:59:03.567Z,2.44
2019-01-21T18:01:35.738Z,2.45
2019-01-21T18:04:03.676Z,2.41
2019-01-21T18:06:32.880Z,2.45
2019-01-21T18:09:02.227Z,2.48
2019-01-21T18:11:31.749Z,2.44
2019-01-21T18:14:00.955Z,2.53
2019-01-21T18:16:30.140Z,2.55
2019-01-21T18:18:59.649Z,2.56
2019-01-21T18:21:28.828Z,2.61
2019-01-21T18:23:58.060Z,2.55
2019-01-21T18:26:27.276Z,2.56
2019-01-21T18:28:56.471Z,2.52
2019-01-21T18:31:25.682Z,2.56
2019-01-21T18:33:54.909Z,2.56
2019-01-21T18:36:24.087Z,2.60
2019-01-21T18:38:53.302Z,2.57
2019-01-21T18:41:22.489Z,2.53
2019-01-21T18:43:51.702Z,2.51
2019-01-21T18:46:20.909Z,2.53
2019-01-21T18:48:50.394Z,2.57
2019-01-21T18:51:19.573Z,2.59
2019-01-21T18:53:48.758Z,2.70
2019-01-21T18:56:17.963Z,2.63
2019-01-21T18:58:47.438Z,2.65
2019-01-21T19:01:16.803Z,2.52
2019-01-21T19:03:46.326Z,2.60
2019-01-21T19:06:16.104Z,2.59
2019-01-21T19:08:45.283Z,2.62
2019-01-21T19:11:14.494Z,2.61
2019-01-21T19:13:43.896Z,2.61
2019-01-21T19:16:13.135Z,2.63
2019-01-21T19:18:42.600Z,2.65
2019-01-21T19:21:12.075Z,2.68
2019-01-21T19:23:41.567Z,2.66
2019-01-21T19:26:11.020Z,2.68
2019-01-21T19:28:40.219Z,2.68
2019-01-21T19:31:09.419Z,2.49
2019-01-21T19:33:38.900Z,2.48
2019-01-21T19:36:08.156Z,2.53
2019-01-21T19:38:37.691Z,2.63
2019-01-21T19:41:06.878Z,2.61
2019-01-21T19:43:36.092Z,2.54
2019-01-21T19:46:05.411Z,2.56
2019-01-21T19:48:34.645Z,2.59
2019-01-21T19:51:03.955Z,2.59
2019-01-21T19:53:33.484Z,2.58
2019-01-21T19:56:02.666Z,2.60
2019-01-21T19:58:31.882Z,2.64
2019-01-21T20:01:01.165Z,2.61
2019-01-21T20:03:30.398Z,2.69
2019-01-21T20:05:59.747Z,2.68
2019-01-21T20:08:29.031Z,2.70
2019-01-21T20:10:58.336Z,2.63
2019-01-21T20:13:27.539Z,2.60
2019-01-21T20:15:57.043Z,2.56
2019-01-21T20:18:26.283Z,2.53
2019-01-21T20:20:55.485Z,2.51
2019-01-21T20:23:24.688Z,2.54
2019-01-21T20:25:54.135Z,2.56
2019-01-21T20:28:23.341Z,2.56
2019-01-21T20:30:52.795Z,2.56
2019-01-21T20:33:21.980Z,2.58
2019-01-21T20:35:51.462Z,2.53
2019-01-21T20:38:20.958Z,2.54
2019-01-21T20:40:50.192Z,2.45
2019-01-21T20:43:19.477Z,2.41
2019-01-21T20:45:48.681Z,2.41
2019-01-21T20:48:18.137Z,2.46
2019-01-21T20:50:47.468Z,2.41
2019-01-21T20:53:17.041Z,2.47
2019-01-21T20:55:46.658Z,2.48
2019-01-21T20:58:16.146Z,2.51
2019-01-21T21:00:45.598Z,2.54
2019-01-21T21:03:14.916Z,2.53
2019-01-21T21:05:44.261Z,2.63
2019-01-21T21:08:13.573Z,2.48
2019-01-21T21:10:43.687Z,2.42
2019-01-21T21:13:13.010Z,2.40
2019-01-21T21:15:42.343Z,2.48
2019-01-21T21:18:11.656Z,2.56
2019-01-21T21:20:41.154Z,2.58
2019-01-21T21:23:10.474Z,2.58
2019-01-21T21:25:39.807Z,2.52
2019-01-21T21:28:09.116Z,2.42
2019-01-21T21:30:38.456Z,2.39
2019-01-21T21:33:08.542Z,2.31
2019-01-21T21:35:37.942Z,2.23
2019-01-21T21:38:07.326Z,2.28
2019-01-21T21:40:36.764Z,2.28
2019-01-21T21:43:06.086Z,2.32
2019-01-21T21:45:36.090Z,2.36
2019-01-21T21:48:05.493Z,2.45
2019-01-21T21:50:34.980Z,2.47
2019-01-21T21:53:04.295Z,2.55
2019-01-21T21:55:33.649Z,2.54
2019-01-21T21:58:03.511Z,2.54
2019-01-21T22:00:32.936Z,2.47
2019-01-21T22:03:02.558Z,2.48
2019-01-21T22:05:31.894Z,2.45
2019-01-21T22:08:01.215Z,2.48
2019-01-21T22:10:31.131Z,2.45
2019-01-21T22:13:00.815Z,2.51
2019-01-21T22:15:30.274Z,2.51
2019-01-21T22:17:59.590Z,2.42
2019-01-21T22:20:28.920Z,2.44
2019-01-21T22:22:58.510Z,2.24
2019-01-21T22:25:27.755Z,2.03
2019-01-21T22:27:56.931Z,1.84
2019-01-21T22:30:27.851Z,1.72
2019-01-21T22:32:57.028Z,1.64
2019-01-21T22:35:26.244Z,1.59
2019-01-21T22:37:55.712Z,1.59
2019-01-21T22:40:25.076Z,1.50
2019-01-21T22:42:54.317Z,1.24
2019-01-21T22:45:24.013Z,1.13
2019-01-21T22:47:53.198Z,1.19
2019-01-21T22:50:22.536Z,1.02
2019-01-21T22:52:51.714Z,1.17
2019-01-21T22:55:20.999Z,1.32
2019-01-21T22:57:50.474Z,1.41
2019-01-21T23:00:48.634Z,1.52
2019-01-21T23:03:17.808Z,1.49
2019-01-21T23:05:47.009Z,1.33
2019-01-21T23:08:16.180Z,1.37
2019-01-21T23:10:45.520Z,1.49
2019-01-21T23:13:14.702Z,1.60
2019-01-21T23:15:43.903Z,1.58
2019-01-21T23:18:13.092Z,1.62
2019-01-21T23:20:42.793Z,1.63
2019-01-21T23:23:11.977Z,1.69
2019-01-21T23:25:41.422Z,1.64
2019-01-21T23:28:10.627Z,1.60
2019-01-21T23:30:39.904Z,1.45
2019-01-21T23:33:09.109Z,1.27
2019-01-21T23:35:38.479Z,1.29
2019-01-21T23:38:07.684Z,1.11
2019-01-21T23:40:37.131Z,1.04
2019-01-21T23:43:06.631Z,1.04
2019-01-21T23:45:35.813Z,1.06
2019-01-21T23:48:05.391Z,1.16
2019-01-21T23:50:34.570Z,1.21
2019-01-21T23:53:03.768Z,1.20
2019-01-21T23:55:32.954Z,1.20
2019-01-21T23:58:02.421Z,1.06
